Time;durP1;ratioP1;P1;durP2;ratioP2;P2;SDS_P1;SDS_P2;PMS_P1;PMS_P2;Temp;Humidity;BMP_temperature;BMP_pressure;BME280_temperature;BME280_humidity;BME280_pressure;Samples;Min_cycle;Max_cycle;Signal;HPM_P1;HPM_P2
2021/08/17 00:00:22;;;;;;;6.47;2.42;;;;;;;;;;5037161;28;20025;-75
2021/08/17 00:02:48;;;;;;;5.93;2.58;;;;;;;;;;5037507;28;20021;-75
2021/08/17 00:05:14;;;;;;;7.47;2.70;;;;;;;;;;5037361;28;20049;-74
2021/08/17 00:07:41;;;;;;;5.47;2.60;;;;;;;;;;5036974;28;20592;-76
2021/08/17 00:10:07;;;;;;;6.30;2.88;;;;;;;;;;5052777;28;20464;-75
2021/08/17 00:12:34;;;;;;;5.15;2.80;;;;;;;;;;5052591;28;20039;-74
2021/08/17 00:15:01;;;;;;;8.32;3.13;;;;;;;;;;5052683;28;20025;-75
2021/08/17 00:17:27;;;;;;;6.13;2.70;;;;;;;;;;5034848;28;20028;-75
2021/08/17 00:19:53;;;;;;;7.07;3.03;;;;;;;;;;5052765;28;20569;-74
2021/08/17 00:22:22;;;;;;;5.93;3.20;;;;;;;;;;5034676;28;20025;-74
2021/08/17 00:24:49;;;;;;;6.75;2.90;;;;;;;;;;5052622;28;20472;-74
2021/08/17 00:27:16;;;;;;;6.65;2.85;;;;;;;;;;5034766;28;20571;-74
2021/08/17 00:29:42;;;;;;;9.50;3.22;;;;;;;;;;5052756;28;20094;-75
2021/08/17 00:32:08;;;;;;;7.50;3.25;;;;;;;;;;5034749;28;20051;-75
2021/08/17 00:34:34;;;;;;;5.65;3.17;;;;;;;;;;5052727;28;20083;-74
2021/08/17 00:37:00;;;;;;;6.45;2.75;;;;;;;;;;5052563;28;20028;-74
2021/08/17 00:39:27;;;;;;;6.82;3.13;;;;;;;;;;5032542;28;20496;-75
2021/08/17 00:41:53;;;;;;;8.23;3.55;;;;;;;;;;5034759;28;20087;-74
2021/08/17 00:44:26;;;;;;;6.93;3.42;;;;;;;;;;5032517;28;20052;-74
2021/08/17 00:46:53;;;;;;;6.70;3.22;;;;;;;;;;5052494;28;20037;-75
2021/08/17 00:49:20;;;;;;;8.25;3.40;;;;;;;;;;5032408;28;20047;-75
2021/08/17 00:51:46;;;;;;;7.38;3.58;;;;;;;;;;5047417;28;20041;-75
2021/08/17 00:54:13;;;;;;;7.10;3.35;;;;;;;;;;5051998;28;20052;-74
2021/08/17 00:56:39;;;;;;;5.80;3.25;;;;;;;;;;5046367;28;20025;-75
2021/08/17 00:59:08;;;;;;;7.97;3.88;;;;;;;;;;5051700;28;20028;-75
2021/08/17 01:01:34;;;;;;;6.85;3.38;;;;;;;;;;5031756;28;20106;-75
2021/08/17 01:04:00;;;;;;;10.32;3.80;;;;;;;;;;5052119;28;20178;-74
2021/08/17 01:06:27;;;;;;;6.95;3.53;;;;;;;;;;5033177;28;20025;-74
2021/08/17 01:08:53;;;;;;;7.88;3.80;;;;;;;;;;5046387;28;20025;-75
2021/08/17 01:11:19;;;;;;;6.07;3.05;;;;;;;;;;5052052;28;20033;-73
2021/08/17 01:13:45;;;;;;;9.35;4.07;;;;;;;;;;5046285;28;20021;-74
2021/08/17 01:16:11;;;;;;;7.65;4.32;;;;;;;;;;5034188;28;20063;-74
2021/08/17 01:18:37;;;;;;;6.70;3.10;;;;;;;;;;5046658;28;20036;-74
2021/08/17 01:21:08;;;;;;;7.82;3.75;;;;;;;;;;5051774;28;20021;-75
2021/08/17 01:23:34;;;;;;;8.55;3.78;;;;;;;;;;5051931;28;20084;-75
2021/08/17 01:26:00;;;;;;;7.63;3.28;;;;;;;;;;5026385;28;20013;-75
2021/08/17 01:28:26;;;;;;;6.45;3.88;;;;;;;;;;5034731;28;20025;-75
2021/08/17 01:31:02;;;;;;;7.30;3.65;;;;;;;;;;5035159;28;20540;-75
2021/08/17 01:33:29;;;;;;;7.90;4.30;;;;;;;;;;5035970;28;20128;-75
2021/08/17 01:35:55;;;;;;;8.63;4.30;;;;;;;;;;5034568;28;20025;-75
2021/08/17 01:38:21;;;;;;;9.73;4.18;;;;;;;;;;5035369;28;20131;-75
2021/08/17 01:40:47;;;;;;;10.68;4.18;;;;;;;;;;5034488;28;20021;-74
2021/08/17 01:43:14;;;;;;;9.68;3.78;;;;;;;;;;5035618;28;20034;-74
2021/08/17 01:45:40;;;;;;;8.27;4.40;;;;;;;;;;5051671;28;20028;-75
2021/08/17 01:48:06;;;;;;;9.30;4.38;;;;;;;;;;5051646;28;20025;-74
2021/08/17 01:50:32;;;;;;;12.30;4.68;;;;;;;;;;5033612;28;20032;-74
2021/08/17 01:52:58;;;;;;;9.30;4.45;;;;;;;;;;5033577;28;20041;-74
2021/08/17 01:55:24;;;;;;;8.93;4.07;;;;;;;;;;5033746;28;20025;-74
2021/08/17 01:57:51;;;;;;;8.90;4.60;;;;;;;;;;5051655;28;20017;-74
2021/08/17 02:00:17;;;;;;;9.63;4.22;;;;;;;;;;5033455;28;20499;-74
2021/08/17 02:02:43;;;;;;;8.55;4.43;;;;;;;;;;5051336;28;20026;-74
2021/08/17 02:05:10;;;;;;;7.35;3.80;;;;;;;;;;5051527;28;20021;-74
2021/08/17 02:07:36;;;;;;;6.93;3.78;;;;;;;;;;5051719;28;20395;-74
2021/08/17 02:10:03;;;;;;;10.88;4.35;;;;;;;;;;5053206;28;20544;-75
2021/08/17 02:12:29;;;;;;;7.78;4.05;;;;;;;;;;5055264;28;20041;-74
2021/08/17 02:14:55;;;;;;;9.35;4.60;;;;;;;;;;5055252;28;20017;-74
2021/08/17 02:17:21;;;;;;;11.25;4.43;;;;;;;;;;5055234;28;20538;-75
2021/08/17 02:19:47;;;;;;;9.10;4.28;;;;;;;;;;5037066;28;20025;-75
2021/08/17 02:22:13;;;;;;;7.55;4.18;;;;;;;;;;5037118;28;20032;-75
2021/08/17 02:24:40;;;;;;;7.72;4.20;;;;;;;;;;5055013;28;20103;-75
2021/08/17 02:27:07;;;;;;;7.90;4.32;;;;;;;;;;5054945;28;20056;-75
2021/08/17 02:29:33;;;;;;;8.75;4.05;;;;;;;;;;5054820;28;20025;-75
2021/08/17 02:31:59;;;;;;;8.20;4.20;;;;;;;;;;5036970;28;20143;-75
2021/08/17 02:34:25;;;;;;;8.75;4.03;;;;;;;;;;5054953;28;20476;-75
2021/08/17 02:36:51;;;;;;;8.32;4.00;;;;;;;;;;5036956;28;20407;-76
2021/08/17 02:39:17;;;;;;;8.18;4.03;;;;;;;;;;5036722;28;20021;-75
2021/08/17 02:41:43;;;;;;;7.57;3.78;;;;;;;;;;5036705;28;20021;-75
2021/08/17 02:44:09;;;;;;;7.50;3.97;;;;;;;;;;5054546;28;20043;-75
2021/08/17 02:46:35;;;;;;;7.15;3.80;;;;;;;;;;5036745;28;20138;-75
2021/08/17 02:49:01;;;;;;;6.82;3.67;;;;;;;;;;5054752;28;20017;-75
2021/08/17 02:51:27;;;;;;;9.98;4.03;;;;;;;;;;5036642;28;20041;-75
2021/08/17 02:53:53;;;;;;;9.27;3.65;;;;;;;;;;5036194;28;20573;-75
2021/08/17 02:56:19;;;;;;;7.28;3.72;;;;;;;;;;5054214;28;20086;-75
2021/08/17 02:58:45;;;;;;;8.93;4.07;;;;;;;;;;5036390;28;20024;-75
2021/08/17 03:01:12;;;;;;;9.40;4.50;;;;;;;;;;5054386;28;20025;-75
2021/08/17 03:03:38;;;;;;;8.75;3.85;;;;;;;;;;5054245;28;20021;-75
2021/08/17 03:06:04;;;;;;;7.65;3.92;;;;;;;;;;5036296;28;20021;-75
2021/08/17 03:08:30;;;;;;;8.63;4.10;;;;;;;;;;5054285;28;20549;-75
2021/08/17 03:10:56;;;;;;;7.68;3.63;;;;;;;;;;5054043;28;20036;-75
2021/08/17 03:13:22;;;;;;;8.70;3.42;;;;;;;;;;5036198;28;20028;-75
2021/08/17 03:15:48;;;;;;;7.93;4.07;;;;;;;;;;5054080;28;20088;-74
2021/08/17 03:18:14;;;;;;;7.45;3.85;;;;;;;;;;5036036;28;20025;-75
2021/08/17 03:20:40;;;;;;;8.07;4.10;;;;;;;;;;5053766;28;20017;-75
2021/08/17 03:23:07;;;;;;;8.80;4.43;;;;;;;;;;5035615;28;20062;-75
2021/08/17 03:25:33;;;;;;;8.85;4.13;;;;;;;;;;5036086;28;20025;-75
2021/08/17 03:27:59;;;;;;;7.53;3.83;;;;;;;;;;5035881;28;20015;-75
2021/08/17 03:30:27;;;;;;;9.23;4.68;;;;;;;;;;5053615;28;20031;-75
2021/08/17 03:32:53;;;;;;;8.80;4.20;;;;;;;;;;5053844;28;20087;-75
2021/08/17 03:35:19;;;;;;;8.40;4.13;;;;;;;;;;5036056;28;20540;-74
2021/08/17 03:37:46;;;;;;;8.18;3.92;;;;;;;;;;5053792;28;20120;-75
2021/08/17 03:40:13;;;;;;;8.13;4.25;;;;;;;;;;5035604;28;20021;-76
2021/08/17 03:42:40;;;;;;;9.15;3.60;;;;;;;;;;5035650;28;20021;-75
2021/08/17 03:45:07;;;;;;;7.28;3.67;;;;;;;;;;5029813;28;20029;-75
2021/08/17 03:47:33;;;;;;;9.45;4.40;;;;;;;;;;5036577;28;20451;-75
2021/08/17 03:49:59;;;;;;;8.25;4.18;;;;;;;;;;5037141;28;20029;-75
2021/08/17 03:52:26;;;;;;;8.05;3.90;;;;;;;;;;5036703;28;20042;-75
2021/08/17 03:54:52;;;;;;;7.13;3.70;;;;;;;;;;5036116;28;20053;-75
2021/08/17 03:57:18;;;;;;;8.50;3.40;;;;;;;;;;5035959;28;20028;-75
2021/08/17 03:59:44;;;;;;;8.10;3.90;;;;;;;;;;5036849;28;20021;-75
2021/08/17 04:02:10;;;;;;;10.27;3.97;;;;;;;;;;5035728;28;20068;-75
2021/08/17 04:04:36;;;;;;;9.15;3.75;;;;;;;;;;5036066;28;20029;-76
2021/08/17 04:07:02;;;;;;;7.55;3.83;;;;;;;;;;5036830;28;20017;-75
2021/08/17 04:09:28;;;;;;;7.03;3.55;;;;;;;;;;5037512;28;20109;-75
2021/08/17 04:11:54;;;;;;;9.20;3.58;;;;;;;;;;5037347;28;20859;-75
2021/08/17 04:14:20;;;;;;;7.75;3.80;;;;;;;;;;5037248;28;20494;-75
2021/08/17 04:16:46;;;;;;;7.80;3.30;;;;;;;;;;5034760;28;20029;-75
2021/08/17 04:19:12;;;;;;;7.05;3.75;;;;;;;;;;5034957;28;20021;-75
2021/08/17 04:21:38;;;;;;;7.10;3.63;;;;;;;;;;5035004;28;20027;-75
2021/08/17 04:24:04;;;;;;;8.05;3.67;;;;;;;;;;5034866;28;20017;-75
2021/08/17 04:26:31;;;;;;;8.32;3.70;;;;;;;;;;5034894;28;20097;-75
2021/08/17 04:28:57;;;;;;;7.90;3.53;;;;;;;;;;5034905;28;20013;-75
2021/08/17 04:31:23;;;;;;;7.53;3.55;;;;;;;;;;5052344;28;20037;-75
2021/08/17 04:33:49;;;;;;;9.68;3.50;;;;;;;;;;5051641;28;20021;-74
2021/08/17 04:36:15;;;;;;;6.93;2.95;;;;;;;;;;5052453;28;20035;-75
2021/08/17 04:38:41;;;;;;;7.03;3.40;;;;;;;;;;5034394;28;20037;-75
2021/08/17 04:41:07;;;;;;;7.97;3.58;;;;;;;;;;5052331;28;20555;-74
2021/08/17 04:43:33;;;;;;;7.57;3.47;;;;;;;;;;5052436;28;20415;-74
2021/08/17 04:45:59;;;;;;;10.00;3.35;;;;;;;;;;5046359;28;20108;-75
2021/08/17 04:48:25;;;;;;;9.45;3.55;;;;;;;;;;5052471;28;20071;-75
2021/08/17 04:50:51;;;;;;;6.93;3.20;;;;;;;;;;5034282;28;20045;-75
2021/08/17 04:53:17;;;;;;;8.85;3.55;;;;;;;;;;5052321;28;20037;-75
2021/08/17 04:55:43;;;;;;;8.73;3.55;;;;;;;;;;5034339;28;20032;-75
2021/08/17 04:58:09;;;;;;;6.53;3.30;;;;;;;;;;5052333;28;20108;-74
2021/08/17 05:00:42;;;;;;;8.02;3.67;;;;;;;;;;5034378;28;20032;-75
2021/08/17 05:03:08;;;;;;;9.73;3.60;;;;;;;;;;5052200;28;20025;-74
2021/08/17 05:05:34;;;;;;;9.15;3.15;;;;;;;;;;5034028;28;20013;-74
2021/08/17 05:08:05;;;;;;;6.70;3.22;;;;;;;;;;5034251;28;20021;-74
2021/08/17 05:10:31;;;;;;;7.00;3.08;;;;;;;;;;5052000;28;20067;-75
2021/08/17 05:12:57;;;;;;;8.73;3.30;;;;;;;;;;5052104;28;20029;-75
2021/08/17 05:15:23;;;;;;;8.05;3.65;;;;;;;;;;5034121;28;20018;-74
2021/08/17 05:17:49;;;;;;;7.28;3.10;;;;;;;;;;5034168;28;20029;-75
2021/08/17 05:20:15;;;;;;;9.65;3.00;;;;;;;;;;5034142;28;20021;-75
2021/08/17 05:22:41;;;;;;;7.00;3.10;;;;;;;;;;5034010;28;20024;-74
2021/08/17 05:25:07;;;;;;;7.68;3.55;;;;;;;;;;5052058;28;20061;-74
2021/08/17 05:27:33;;;;;;;7.68;3.25;;;;;;;;;;5051866;28;20028;-74
2021/08/17 05:29:59;;;;;;;6.38;3.00;;;;;;;;;;5051712;28;20032;-74
2021/08/17 05:32:26;;;;;;;7.65;2.97;;;;;;;;;;5051704;28;20029;-74
2021/08/17 05:34:52;;;;;;;7.35;3.08;;;;;;;;;;5051717;28;20476;-74
2021/08/17 05:37:18;;;;;;;6.25;3.15;;;;;;;;;;5051796;28;20029;-74
2021/08/17 05:39:45;;;;;;;6.90;2.50;;;;;;;;;;5033602;28;20013;-74
2021/08/17 05:42:11;;;;;;;8.43;3.08;;;;;;;;;;5033676;28;20499;-74
2021/08/17 05:44:41;;;;;;;6.80;2.83;;;;;;;;;;5034716;28;20056;-74
2021/08/17 05:47:08;;;;;;;6.07;2.58;;;;;;;;;;5055529;28;20117;-74
2021/08/17 05:49:36;;;;;;;6.97;2.63;;;;;;;;;;5055466;28;20018;-74
2021/08/17 05:52:03;;;;;;;7.35;2.72;;;;;;;;;;5037527;28;20037;-74
2021/08/17 05:54:29;;;;;;;5.75;2.60;;;;;;;;;;5055368;28;20052;-75
2021/08/17 05:56:58;;;;;;;5.90;2.80;;;;;;;;;;5055690;28;20054;-75
2021/08/17 05:59:25;;;;;;;5.70;2.80;;;;;;;;;;5037443;28;20060;-74
2021/08/17 06:01:51;;;;;;;6.65;3.08;;;;;;;;;;5037509;28;20024;-74
2021/08/17 06:04:17;;;;;;;5.60;2.70;;;;;;;;;;5037240;28;20115;-75
2021/08/17 06:06:43;;;;;;;5.07;2.65;;;;;;;;;;5037222;28;20021;-73
2021/08/17 06:09:09;;;;;;;7.55;3.00;;;;;;;;;;5055191;28;20025;-75
2021/08/17 06:11:35;;;;;;;7.40;3.05;;;;;;;;;;5037202;28;20043;-75
2021/08/17 06:14:01;;;;;;;5.50;2.72;;;;;;;;;;5055183;28;20480;-75
2021/08/17 06:16:27;;;;;;;7.90;2.72;;;;;;;;;;5037097;28;20032;-75
2021/08/17 06:18:54;;;;;;;7.95;3.17;;;;;;;;;;5037435;28;20443;-74
2021/08/17 06:21:21;;;;;;;9.05;3.08;;;;;;;;;;5055083;28;20021;-74
2021/08/17 06:23:47;;;;;;;7.05;2.70;;;;;;;;;;5055042;28;20021;-75
2021/08/17 06:26:13;;;;;;;7.07;3.10;;;;;;;;;;5037022;28;20025;-75
2021/08/17 06:28:41;;;;;;;9.30;2.80;;;;;;;;;;5054746;28;20025;-75
2021/08/17 06:31:07;;;;;;;6.32;2.60;;;;;;;;;;5054563;28;20021;-74
2021/08/17 06:33:33;;;;;;;6.97;2.80;;;;;;;;;;5054701;28;20082;-74
2021/08/17 06:35:59;;;;;;;11.68;3.00;;;;;;;;;;5054686;28;20029;-75
2021/08/17 06:38:25;;;;;;;8.80;3.00;;;;;;;;;;5054676;28;20028;-74
2021/08/17 06:40:52;;;;;;;5.38;2.92;;;;;;;;;;5036693;28;20031;-75
2021/08/17 06:43:18;;;;;;;7.95;2.70;;;;;;;;;;5054541;28;20025;-74
2021/08/17 06:45:44;;;;;;;8.70;2.92;;;;;;;;;;5048794;28;20025;-75
2021/08/17 06:48:10;;;;;;;6.10;2.88;;;;;;;;;;5036310;28;20018;-75
2021/08/17 06:50:36;;;;;;;6.35;2.97;;;;;;;;;;5054150;28;20707;-74
2021/08/17 06:53:02;;;;;;;6.65;2.88;;;;;;;;;;5036339;28;20553;-75
2021/08/17 06:55:28;;;;;;;5.70;3.05;;;;;;;;;;5054192;28;20025;-74
2021/08/17 06:57:54;;;;;;;9.57;3.05;;;;;;;;;;5053805;28;20126;-75
2021/08/17 07:00:20;;;;;;;6.10;2.58;;;;;;;;;;5054357;28;20425;-74
2021/08/17 07:02:46;;;;;;;6.22;2.63;;;;;;;;;;5054321;28;20503;-74
2021/08/17 07:05:12;;;;;;;6.20;2.85;;;;;;;;;;5054170;28;20496;-74
2021/08/17 07:07:38;;;;;;;5.40;2.30;;;;;;;;;;5053931;28;20431;-75
2021/08/17 07:10:05;;;;;;;5.90;2.13;;;;;;;;;;5035880;28;20021;-75
2021/08/17 07:12:31;;;;;;;5.82;2.30;;;;;;;;;;5036039;28;20055;-74
2021/08/17 07:14:57;;;;;;;9.27;2.85;;;;;;;;;;5036126;28;20021;-74
2021/08/17 07:17:23;;;;;;;5.18;2.40;;;;;;;;;;5054259;28;20033;-75
2021/08/17 07:19:49;;;;;;;4.88;2.28;;;;;;;;;;5053859;28;20100;-74
2021/08/17 07:22:15;;;;;;;5.60;2.30;;;;;;;;;;5036097;28;20017;-75
2021/08/17 07:24:41;;;;;;;4.53;2.30;;;;;;;;;;5053944;28;20488;-74
2021/08/17 07:27:07;;;;;;;4.47;2.17;;;;;;;;;;5035949;28;20494;-74
2021/08/17 07:29:33;;;;;;;5.60;2.60;;;;;;;;;;5035836;28;20051;-74
2021/08/17 07:31:59;;;;;;;6.30;2.30;;;;;;;;;;5035766;28;20052;-74
2021/08/17 07:34:25;;;;;;;5.80;2.20;;;;;;;;;;5036057;28;20043;-74
2021/08/17 07:36:51;;;;;;;4.82;2.45;;;;;;;;;;5053759;28;20071;-75
2021/08/17 07:39:17;;;;;;;6.13;2.40;;;;;;;;;;5053645;28;20015;-74
2021/08/17 07:41:44;;;;;;;5.68;2.10;;;;;;;;;;5035576;28;20025;-74
2021/08/17 07:44:10;;;;;;;6.72;2.45;;;;;;;;;;5035290;28;20024;-75
2021/08/17 07:46:36;;;;;;;4.07;2.10;;;;;;;;;;5035574;28;20384;-74
2021/08/17 07:49:03;;;;;;;5.75;2.00;;;;;;;;;;5053416;28;20017;-74
2021/08/17 07:51:29;;;;;;;4.70;2.20;;;;;;;;;;5053520;28;20079;-74
2021/08/17 07:53:55;;;;;;;5.28;2.47;;;;;;;;;;5032034;28;20056;-74
2021/08/17 07:56:21;;;;;;;4.85;1.90;;;;;;;;;;5033380;28;20076;-74
2021/08/17 07:58:47;;;;;;;6.25;2.25;;;;;;;;;;5033252;28;20107;-75
2021/08/17 08:01:13;;;;;;;5.55;2.25;;;;;;;;;;5033277;28;20025;-74
2021/08/17 08:03:40;;;;;;;5.50;2.20;;;;;;;;;;5031852;28;20503;-74
2021/08/17 08:06:10;;;;;;;4.20;1.88;;;;;;;;;;5033441;28;20404;-75
2021/08/17 08:08:37;;;;;;;4.00;1.83;;;;;;;;;;5032852;28;20029;-75
2021/08/17 08:11:03;;;;;;;6.13;2.00;;;;;;;;;;5032806;28;20092;-75
2021/08/17 08:13:29;;;;;;;5.50;2.00;;;;;;;;;;5031423;28;20018;-74
2021/08/17 08:15:55;;;;;;;4.10;1.90;;;;;;;;;;5032758;28;20017;-75
2021/08/17 08:18:22;;;;;;;5.53;1.90;;;;;;;;;;5031509;28;20275;-74
2021/08/17 08:20:48;;;;;;;5.57;2.10;;;;;;;;;;5032816;28;20025;-74
2021/08/17 08:23:14;;;;;;;3.97;1.92;;;;;;;;;;5032865;28;20030;-74
2021/08/17 08:25:40;;;;;;;5.55;2.00;;;;;;;;;;5032503;28;20026;-74
2021/08/17 08:28:07;;;;;;;6.15;1.90;;;;;;;;;;5032676;28;20053;-75
2021/08/17 08:30:33;;;;;;;3.88;1.60;;;;;;;;;;5032576;28;20403;-75
2021/08/17 08:32:59;;;;;;;6.40;2.15;;;;;;;;;;5031401;28;20037;-75
2021/08/17 08:35:25;;;;;;;5.13;1.83;;;;;;;;;;5031511;28;20129;-74
2021/08/17 08:37:51;;;;;;;4.65;1.73;;;;;;;;;;5032767;28;20096;-74
2021/08/17 08:40:17;;;;;;;6.50;1.50;;;;;;;;;;5031467;28;20499;-75
2021/08/17 08:42:45;;;;;;;6.05;1.42;;;;;;;;;;5032450;28;20021;-74
2021/08/17 08:45:11;;;;;;;3.38;1.40;;;;;;;;;;5031230;28;20025;-74
2021/08/17 08:47:39;;;;;;;4.95;1.58;;;;;;;;;;5028719;28;20032;-75
2021/08/17 08:50:05;;;;;;;4.65;1.30;;;;;;;;;;5031083;28;20037;-75
2021/08/17 08:52:32;;;;;;;5.10;1.50;;;;;;;;;;5030638;28;20037;-75
2021/08/17 08:55:00;;;;;;;7.72;1.60;;;;;;;;;;5034329;28;20025;-74
2021/08/17 08:57:26;;;;;;;2.88;1.00;;;;;;;;;;5052291;28;20021;-74
2021/08/17 08:59:53;;;;;;;4.65;1.20;;;;;;;;;;5046098;28;20033;-74
2021/08/17 09:02:19;;;;;;;2.80;1.13;;;;;;;;;;5033445;28;20033;-74
2021/08/17 09:04:52;;;;;;;3.47;1.00;;;;;;;;;;5048413;28;20025;-74
2021/08/17 09:07:34;;;;;;;3.83;1.00;;;;;;;;;;5051775;28;20028;-74
2021/08/17 09:10:00;;;;;;;;;;;;;;;;;;5052275;28;20063;-74
2021/08/17 09:12:43;;;;;;;3.08;0.80;;;;;;;;;;5051891;28;19966;-74
2021/08/17 09:15:11;;;;;;;5.45;0.90;;;;;;;;;;5050436;28;20072;-74
2021/08/17 09:17:37;;;;;;;3.92;1.25;;;;;;;;;;5033839;28;20029;-74
2021/08/17 09:20:04;;;;;;;2.95;1.10;;;;;;;;;;5055525;28;20433;-74
2021/08/17 09:22:31;;;;;;;3.38;1.25;;;;;;;;;;5058469;28;20025;-74
2021/08/17 09:24:58;;;;;;;5.65;1.20;;;;;;;;;;5040298;28;20051;-74
2021/08/17 09:27:28;;;;;;;2.05;0.85;;;;;;;;;;5058550;28;20104;-74
2021/08/17 09:30:04;;;;;;;3.58;0.88;;;;;;;;;;5040496;28;20032;-74
2021/08/17 09:32:30;;;;;;;4.07;0.82;;;;;;;;;;5040361;28;20044;-74
2021/08/17 09:34:57;;;;;;;2.72;1.00;;;;;;;;;;5058261;28;20068;-74
2021/08/17 09:37:31;;;;;;;6.28;1.33;;;;;;;;;;5058287;28;20025;-75
2021/08/17 09:39:57;;;;;;;4.28;1.15;;;;;;;;;;5040522;28;20021;-74
2021/08/17 09:42:27;;;;;;;5.72;1.00;;;;;;;;;;5058424;28;20021;-74
2021/08/17 09:45:07;;;;;;;5.05;0.90;;;;;;;;;;5058117;28;20047;-74
2021/08/17 09:47:34;;;;;;;2.83;1.02;;;;;;;;;;5040447;28;20134;-75
2021/08/17 09:50:20;;;;;;;3.00;1.15;;;;;;;;;;5057731;28;20021;-74
2021/08/17 09:52:46;;;;;;;4.93;0.93;;;;;;;;;;5040032;28;20041;-74
2021/08/17 09:55:15;;;;;;;2.78;1.00;;;;;;;;;;5058253;28;20384;-74
2021/08/17 09:57:42;;;;;;;4.05;0.90;;;;;;;;;;5058201;28;20027;-74
2021/08/17 10:00:14;;;;;;;2.58;1.00;;;;;;;;;;5058014;28;20496;-74
2021/08/17 10:02:40;;;;;;;2.88;1.10;;;;;;;;;;5040378;28;20032;-75
2021/08/17 10:05:06;;;;;;;3.33;1.02;;;;;;;;;;5040487;28;20132;-75
2021/08/17 10:07:32;;;;;;;2.97;1.20;;;;;;;;;;5040474;28;20503;-75
2021/08/17 10:09:59;;;;;;;1.77;0.88;;;;;;;;;;5058171;28;20052;-74
2021/08/17 10:12:25;;;;;;;2.30;1.00;;;;;;;;;;5040128;28;20718;-74
2021/08/17 10:14:51;;;;;;;3.30;1.30;;;;;;;;;;5040289;28;20041;-75
2021/08/17 10:17:17;;;;;;;3.45;1.10;;;;;;;;;;5058352;28;20029;-74
2021/08/17 10:19:44;;;;;;;3.30;1.15;;;;;;;;;;5057868;28;20036;-74
2021/08/17 10:22:11;;;;;;;3.55;1.33;;;;;;;;;;5040107;28;20040;-74
2021/08/17 10:24:42;;;;;;;2.72;1.10;;;;;;;;;;5040205;28;20124;-75
2021/08/17 10:27:20;;;;;;;2.92;1.38;;;;;;;;;;5039914;28;20131;-74
2021/08/17 10:29:55;;;;;;;6.43;1.30;;;;;;;;;;5040164;28;20029;-75
2021/08/17 10:32:37;;;;;;;9.82;1.52;;;;;;;;;;5036987;28;20396;-74
2021/08/17 10:35:04;;;;;;;4.70;1.27;;;;;;;;;;5054993;28;20082;-74
2021/08/17 10:37:30;;;;;;;6.07;1.40;;;;;;;;;;5055059;28;20028;-74
2021/08/17 10:39:56;;;;;;;4.03;1.15;;;;;;;;;;5054790;28;20021;-74
2021/08/17 10:42:23;;;;;;;4.75;1.33;;;;;;;;;;5036914;28;20029;-74
2021/08/17 10:44:50;;;;;;;5.78;1.50;;;;;;;;;;5054743;28;20491;-74
2021/08/17 10:47:31;;;;;;;3.72;1.20;;;;;;;;;;5049103;28;20033;-74
2021/08/17 10:49:58;;;;;;;6.88;1.77;;;;;;;;;;5053265;28;20118;-74
2021/08/17 10:52:27;;;;;;;3.63;1.40;;;;;;;;;;5054577;28;20040;-74
2021/08/17 10:55:13;;;;;;;4.22;1.70;;;;;;;;;;5053283;28;20048;-74
2021/08/17 10:57:52;;;;;;;3.60;1.55;;;;;;;;;;5053260;28;20599;-74
2021/08/17 11:00:37;;;;;;;3.40;1.42;;;;;;;;;;5054404;28;20017;-74
2021/08/17 11:03:05;;;;;;;3.63;1.63;;;;;;;;;;5054530;28;20032;-74
2021/08/17 11:05:54;;;;;;;5.55;2.13;;;;;;;;;;5054223;28;20028;-74
2021/08/17 11:08:33;;;;;;;4.70;1.50;;;;;;;;;;5046274;28;20033;-75
2021/08/17 11:10:59;;;;;;;3.80;1.38;;;;;;;;;;5052972;28;20025;-73
2021/08/17 11:13:26;;;;;;;3.38;1.50;;;;;;;;;;5054194;28;20475;-74
2021/08/17 11:16:12;;;;;;;4.88;1.50;;;;;;;;;;5052949;28;20110;-74
2021/08/17 11:18:55;;;;;;;3.88;1.45;;;;;;;;;;5054093;28;20392;-74
2021/08/17 11:21:34;;;;;;;4.90;1.60;;;;;;;;;;5054163;28;20476;-74
2021/08/17 11:24:12;;;;;;;4.88;1.60;;;;;;;;;;5052671;28;20044;-74
2021/08/17 11:26:38;;;;;;;5.03;1.52;;;;;;;;;;5054037;28;20021;-74
2021/08/17 11:29:04;;;;;;;4.68;1.58;;;;;;;;;;5052336;28;20025;-74
2021/08/17 11:31:30;;;;;;;5.10;1.50;;;;;;;;;;5053503;28;20055;-75
2021/08/17 11:34:12;;;;;;;4.45;1.45;;;;;;;;;;5053580;28;20082;-73
2021/08/17 11:36:38;;;;;;;5.70;1.90;;;;;;;;;;5052451;28;20025;-74
2021/08/17 11:39:41;;;;;;;4.45;1.77;;;;;;;;;;5053625;28;20045;-74
2021/08/17 11:42:13;;;;;;;7.13;1.63;;;;;;;;;;4991323;28;20022;-73
2021/08/17 11:44:40;;;;;;;4.65;1.60;;;;;;;;;;5044408;28;20454;-74
2021/08/17 11:47:16;;;;;;;4.47;1.55;;;;;;;;;;5052256;28;20373;-74
2021/08/17 11:49:43;;;;;;;5.13;1.65;;;;;;;;;;5053413;28;20064;-74
2021/08/17 11:52:11;;;;;;;6.20;2.15;;;;;;;;;;5053236;28;20033;-74
2021/08/17 11:54:56;;;;;;;4.15;1.45;;;;;;;;;;5051902;28;20403;-74
2021/08/17 11:57:28;;;;;;;6.43;1.85;;;;;;;;;;5053139;28;20029;-74
2021/08/17 11:59:55;;;;;;;5.63;1.73;;;;;;;;;;5051943;28;20036;-74
2021/08/17 12:02:25;;;;;;;4.07;1.80;;;;;;;;;;5051946;28;20380;-74
2021/08/17 12:04:54;;;;;;;6.50;2.15;;;;;;;;;;5053207;28;20049;-74
2021/08/17 12:07:21;;;;;;;5.47;1.67;;;;;;;;;;5053233;28;20024;-76
2021/08/17 12:09:47;;;;;;;5.43;2.00;;;;;;;;;;5051888;28;20025;-74
2021/08/17 12:12:15;;;;;;;4.22;1.50;;;;;;;;;;5051744;28;20067;-74
2021/08/17 12:14:41;;;;;;;3.97;1.58;;;;;;;;;;5051515;28;20187;-74
2021/08/17 12:17:09;;;;;;;7.60;2.40;;;;;;;;;;5052691;28;20028;-74
2021/08/17 12:19:36;;;;;;;7.00;1.90;;;;;;;;;;5051502;28;20123;-74
2021/08/17 12:22:03;;;;;;;5.38;1.77;;;;;;;;;;5052714;28;20028;-74
2021/08/17 12:24:32;;;;;;;7.03;1.80;;;;;;;;;;5051569;28;20415;-74
2021/08/17 12:27:01;;;;;;;5.78;1.80;;;;;;;;;;5051475;28;20033;-74
2021/08/17 12:29:37;;;;;;;8.32;1.90;;;;;;;;;;5052757;28;20028;-73
2021/08/17 12:32:14;;;;;;;5.10;1.90;;;;;;;;;;5046835;28;20036;-73
2021/08/17 12:34:45;;;;;;;5.60;1.80;;;;;;;;;;5032442;28;20026;-74
2021/08/17 12:37:31;;;;;;;6.10;1.80;;;;;;;;;;5048637;28;20070;-74
2021/08/17 12:40:01;;;;;;;5.47;1.95;;;;;;;;;;5054064;28;20616;-74
2021/08/17 12:42:27;;;;;;;5.15;1.52;;;;;;;;;;5072025;28;20104;-74
2021/08/17 12:44:54;;;;;;;4.93;1.92;;;;;;;;;;5072210;28;20488;-74
2021/08/17 12:47:25;;;;;;;7.20;2.17;;;;;;;;;;5071998;28;20494;-74
2021/08/17 12:49:59;;;;;;;4.28;1.83;;;;;;;;;;5053854;28;20036;-74
2021/08/17 12:52:25;;;;;;;5.72;1.92;;;;;;;;;;5071826;28;20041;-74
2021/08/17 12:54:52;;;;;;;5.95;1.75;;;;;;;;;;5071260;28;20093;-74
2021/08/17 12:57:22;;;;;;;6.25;1.70;;;;;;;;;;5053955;28;20032;-74
2021/08/17 12:59:49;;;;;;;7.47;2.25;;;;;;;;;;5054147;28;20044;-74
2021/08/17 13:02:15;;;;;;;5.93;1.58;;;;;;;;;;5072016;28;20067;-74
2021/08/17 13:04:41;;;;;;;5.00;1.80;;;;;;;;;;5071755;28;20028;-74
2021/08/17 13:07:07;;;;;;;5.45;1.88;;;;;;;;;;5053774;28;20503;-74
2021/08/17 13:09:33;;;;;;;3.47;1.50;;;;;;;;;;5053940;28;20031;-74
2021/08/17 13:12:00;;;;;;;6.55;1.92;;;;;;;;;;5071725;28;20086;-74
2021/08/17 13:14:26;;;;;;;4.10;1.45;;;;;;;;;;5071289;28;20124;-74
2021/08/17 13:16:52;;;;;;;8.80;2.03;;;;;;;;;;5071328;28;20021;-74
2021/08/17 13:19:18;;;;;;;5.15;1.67;;;;;;;;;;5053596;28;20012;-74
2021/08/17 13:21:45;;;;;;;3.25;1.25;;;;;;;;;;5071510;28;20384;-74
2021/08/17 13:24:11;;;;;;;3.65;1.75;;;;;;;;;;5071736;28;20021;-74
2021/08/17 13:26:37;;;;;;;6.00;1.45;;;;;;;;;;5071496;28;20027;-74
2021/08/17 13:29:03;;;;;;;4.78;1.60;;;;;;;;;;5071561;28;20048;-74
2021/08/17 13:31:29;;;;;;;4.60;1.70;;;;;;;;;;5059498;28;20083;-74
2021/08/17 13:33:55;;;;;;;4.63;1.70;;;;;;;;;;5034071;28;20024;-74
2021/08/17 13:36:21;;;;;;;5.63;1.83;;;;;;;;;;5033783;28;20029;-74
2021/08/17 13:38:47;;;;;;;3.78;1.75;;;;;;;;;;5033845;28;20025;-74
2021/08/17 13:41:13;;;;;;;5.30;1.67;;;;;;;;;;5034204;28;20103;-74
2021/08/17 13:43:39;;;;;;;6.75;2.17;;;;;;;;;;5052004;28;20028;-74
2021/08/17 13:46:05;;;;;;;4.72;1.30;;;;;;;;;;5051837;28;20025;-74
2021/08/17 13:48:32;;;;;;;4.68;1.75;;;;;;;;;;5033723;28;20526;-74
2021/08/17 13:51:00;;;;;;;6.75;1.77;;;;;;;;;;5051692;28;20024;-74
2021/08/17 13:53:26;;;;;;;4.43;1.60;;;;;;;;;;5033716;28;20041;-74
2021/08/17 13:55:52;;;;;;;4.45;1.27;;;;;;;;;;5033817;28;20025;-74
2021/08/17 13:58:18;;;;;;;3.38;1.27;;;;;;;;;;5033766;28;20029;-74
2021/08/17 14:00:45;;;;;;;4.63;1.60;;;;;;;;;;5051777;28;20075;-74
2021/08/17 14:03:12;;;;;;;3.42;1.50;;;;;;;;;;5051607;28;20075;-74
2021/08/17 14:05:38;;;;;;;4.40;1.45;;;;;;;;;;5052580;28;20024;-74
2021/08/17 14:08:04;;;;;;;6.47;1.70;;;;;;;;;;5055285;28;20029;-74
2021/08/17 14:10:31;;;;;;;4.40;1.40;;;;;;;;;;5055296;28;20067;-74
2021/08/17 14:12:58;;;;;;;4.70;1.70;;;;;;;;;;5037103;28;20062;-74
2021/08/17 14:15:25;;;;;;;6.28;1.90;;;;;;;;;;5037547;28;20519;-74
2021/08/17 14:17:51;;;;;;;4.63;1.90;;;;;;;;;;5037375;28;20078;-74
2021/08/17 14:20:17;;;;;;;3.72;1.25;;;;;;;;;;5055147;28;20017;-74
2021/08/17 14:22:43;;;;;;;3.85;1.50;;;;;;;;;;5055034;28;20450;-74
2021/08/17 14:25:09;;;;;;;6.07;1.20;;;;;;;;;;5055043;28;20024;-74
2021/08/17 14:27:35;;;;;;;4.00;1.60;;;;;;;;;;5037045;28;20063;-74
2021/08/17 14:30:02;;;;;;;4.43;1.38;;;;;;;;;;5054913;28;20021;-74
2021/08/17 14:32:28;;;;;;;5.22;1.48;;;;;;;;;;5036904;28;20533;-74
2021/08/17 14:34:54;;;;;;;3.10;1.40;;;;;;;;;;5054987;28;20503;-74
2021/08/17 14:37:20;;;;;;;4.75;1.60;;;;;;;;;;5036977;28;20476;-74
2021/08/17 14:39:46;;;;;;;3.83;1.40;;;;;;;;;;5054587;28;20027;-74
2021/08/17 14:42:12;;;;;;;3.75;1.58;;;;;;;;;;5054719;28;20025;-74
2021/08/17 14:44:38;;;;;;;2.88;1.20;;;;;;;;;;5036727;28;20064;-74